Time;durP1;ratioP1;P1;durP2;ratioP2;P2;SDS_P1;SDS_P2;PMS_P1;PMS_P2;Temp;Humidity;BMP_temperature;BMP_pressure;BME280_temperature;BME280_humidity;BME280_pressure;Samples;Min_cycle;Max_cycle;Signal;HPM_P1;HPM_P2
2021/08/30 00:00:42;;;;;;;8.68;6.43;;;19.50;77.50;;;;;;5074855;28;20041;-71
2021/08/30 00:03:08;;;;;;;7.68;5.68;;;19.50;77.50;;;;;;5076489;28;20090;-72
2021/08/30 00:05:34;;;;;;;9.55;6.57;;;19.50;77.60;;;;;;5075208;28;20087;-72
2021/08/30 00:07:59;;;;;;;7.10;5.88;;;19.50;77.60;;;;;;5075394;28;20098;-72
2021/08/30 00:10:26;;;;;;;8.65;6.55;;;19.50;77.60;;;;;;5075349;28;20164;-72
2021/08/30 00:12:52;;;;;;;9.27;6.18;;;19.50;77.60;;;;;;5074726;28;20455;-72
2021/08/30 00:15:18;;;;;;;8.63;5.93;;;19.50;77.60;;;;;;5075134;28;20436;-72
2021/08/30 00:17:45;;;;;;;10.43;7.13;;;19.50;77.70;;;;;;5057636;28;20159;-72
2021/08/30 00:20:15;;;;;;;8.80;6.28;;;19.50;77.70;;;;;;5075074;28;20043;-71
2021/08/30 00:22:41;;;;;;;8.80;6.53;;;19.50;77.70;;;;;;5075288;28;20052;-72
2021/08/30 00:25:07;;;;;;;8.95;6.53;;;19.50;77.70;;;;;;5074880;28;20052;-72
2021/08/30 00:27:33;;;;;;;8.57;6.63;;;19.50;77.80;;;;;;5074935;28;20041;-73
2021/08/30 00:29:58;;;;;;;8.52;6.65;;;19.50;77.70;;;;;;5075449;28;20384;-71
2021/08/30 00:32:24;;;;;;;7.43;6.13;;;19.50;77.70;;;;;;5082122;28;20043;-71
2021/08/30 00:34:50;;;;;;;8.07;6.35;;;19.50;77.70;;;;;;5095224;28;20047;-72
2021/08/30 00:37:16;;;;;;;9.38;7.18;;;19.50;77.70;;;;;;5095135;28;20044;-71
2021/08/30 00:39:41;;;;;;;9.18;6.78;;;19.50;77.70;;;;;;5096609;28;20439;-71
2021/08/30 00:42:07;;;;;;;9.32;6.40;;;19.40;77.70;;;;;;5099509;28;20469;-72
2021/08/30 00:44:33;;;;;;;8.90;6.75;;;19.50;77.80;;;;;;5099006;28;20032;-71
2021/08/30 00:46:59;;;;;;;8.43;6.65;;;19.50;77.80;;;;;;5099343;28;20036;-72
2021/08/30 00:49:25;;;;;;;8.48;6.35;;;19.50;77.80;;;;;;5099806;28;20032;-71
2021/08/30 00:51:51;;;;;;;10.32;7.32;;;19.40;77.70;;;;;;5099198;28;20040;-72
2021/08/30 00:54:18;;;;;;;9.77;6.65;;;19.50;77.80;;;;;;5098901;28;20040;-71
2021/08/30 00:56:46;;;;;;;11.63;7.30;;;19.50;77.70;;;;;;5098971;28;20165;-72
2021/08/30 00:59:11;;;;;;;9.45;6.88;;;19.50;77.70;;;;;;5098906;28;20086;-71
2021/08/30 01:01:38;;;;;;;9.32;6.70;;;19.50;77.80;;;;;;5097495;28;20459;-72
2021/08/30 01:04:07;;;;;;;9.60;6.82;;;19.50;77.70;;;;;;5096094;28;20063;-72
2021/08/30 01:06:42;;;;;;;10.52;7.18;;;19.40;77.70;;;;;;5099134;28;20178;-71
2021/08/30 01:09:23;;;;;;;8.27;7.15;;;19.50;77.70;;;;;;5098247;28;20443;-71
2021/08/30 01:12:01;;;;;;;8.38;6.78;;;19.40;77.60;;;;;;5098643;28;20055;-71
2021/08/30 01:14:34;;;;;;;7.93;6.68;;;19.50;77.70;;;;;;5098787;28;20032;-70
2021/08/30 01:17:03;;;;;;;8.95;6.53;;;19.50;77.70;;;;;;5098497;28;20047;-71
2021/08/30 01:19:35;;;;;;;8.88;6.55;;;19.40;77.70;;;;;;5094804;28;20078;-71
2021/08/30 01:22:04;;;;;;;10.75;7.30;;;19.50;77.70;;;;;;5078312;28;20036;-72
2021/08/30 01:24:32;;;;;;;8.65;6.88;;;19.40;77.70;;;;;;5098526;28;20340;-72
2021/08/30 01:27:00;;;;;;;9.82;6.93;;;19.50;77.70;;;;;;5098536;28;20044;-71
2021/08/30 01:29:29;;;;;;;10.65;7.28;;;19.40;77.60;;;;;;5098645;28;20044;-71
2021/08/30 01:32:01;;;;;;;8.77;6.95;;;19.50;77.70;;;;;;5098181;28;20075;-71
2021/08/30 01:34:28;;;;;;;8.63;6.60;;;19.50;77.70;;;;;;5098108;28;20046;-72
2021/08/30 01:36:54;;;;;;;10.93;6.82;;;19.40;77.60;;;;;;5098342;28;20335;-71
2021/08/30 01:39:26;;;;;;;10.48;7.00;;;19.40;77.60;;;;;;5098445;28;20043;-71
2021/08/30 01:41:52;;;;;;;9.30;7.35;;;19.50;77.70;;;;;;5098876;28;20117;-72
2021/08/30 01:44:18;;;;;;;7.75;6.72;;;19.50;77.70;;;;;;5098051;28;20051;-71
2021/08/30 01:46:44;;;;;;;6.97;6.28;;;19.50;77.70;;;;;;5098108;28;20391;-71
2021/08/30 01:49:12;;;;;;;9.35;6.55;;;19.50;77.60;;;;;;5097623;28;20466;-71
2021/08/30 01:51:38;;;;;;;8.60;6.78;;;19.50;77.60;;;;;;5096514;28;20036;-72
2021/08/30 01:54:04;;;;;;;10.02;6.45;;;19.50;77.60;;;;;;5096879;28;20459;-71
2021/08/30 01:56:32;;;;;;;9.60;6.38;;;19.40;77.50;;;;;;5097347;28;20040;-73
2021/08/30 02:01:43;;;;;;;9.00;6.40;;;19.40;77.60;;;;;;5092295;28;20049;-71
2021/08/30 02:04:09;;;;;;;8.95;6.90;;;19.40;77.60;;;;;;5077386;28;20136;-71
2021/08/30 02:06:35;;;;;;;10.75;6.80;;;19.50;77.70;;;;;;5059853;28;20113;-72
2021/08/30 02:09:02;;;;;;;8.63;6.90;;;19.50;77.70;;;;;;5059545;28;20428;-72
2021/08/30 02:11:33;;;;;;;11.20;7.18;;;19.40;77.70;;;;;;5059851;28;20447;-72
2021/08/30 02:14:00;;;;;;;13.43;7.63;;;19.40;77.70;;;;;;5077329;28;20125;-72
2021/08/30 02:16:27;;;;;;;14.65;7.32;;;19.40;77.70;;;;;;5076962;28;20054;-72
2021/08/30 02:19:13;;;;;;;8.77;7.05;;;19.40;77.70;;;;;;5077316;28;20055;-72
2021/08/30 02:21:50;;;;;;;10.82;7.00;;;19.50;77.80;;;;;;5077055;28;20114;-72
2021/08/30 02:24:38;;;;;;;8.98;6.75;;;19.50;77.80;;;;;;5076775;28;20053;-72
2021/08/30 02:27:27;;;;;;;13.45;7.13;;;19.40;77.70;;;;;;5077051;28;20067;-72
2021/08/30 02:30:02;;;;;;;10.52;6.53;;;19.50;77.70;;;;;;5042899;28;20083;-72
2021/08/30 02:32:30;;;;;;;9.52;6.80;;;19.50;77.70;;;;;;5086293;28;20036;-72
2021/08/30 02:34:59;;;;;;;10.45;6.68;;;19.40;77.70;;;;;;5078888;28;20047;-72
2021/08/30 02:37:29;;;;;;;10.35;6.80;;;19.40;77.60;;;;;;5097060;28;20316;-71
2021/08/30 02:39:56;;;;;;;9.38;6.38;;;19.50;77.60;;;;;;5096931;28;20431;-72
2021/08/30 02:42:23;;;;;;;8.30;6.60;;;19.50;77.60;;;;;;5097260;28;20044;-72
2021/08/30 02:44:49;;;;;;;8.40;6.20;;;19.50;77.60;;;;;;5096913;28;20040;-73
2021/08/30 02:47:16;;;;;;;7.95;6.90;;;19.50;77.50;;;;;;5096501;28;20127;-72
2021/08/30 02:49:44;;;;;;;8.13;6.18;;;19.50;77.60;;;;;;5097057;28;20090;-72
2021/08/30 02:52:15;;;;;;;8.23;6.05;;;19.50;77.60;;;;;;5096814;28;20071;-72
2021/08/30 02:54:43;;;;;;;7.07;6.25;;;19.50;77.50;;;;;;5096602;28;20043;-72
2021/08/30 02:57:10;;;;;;;9.55;6.60;;;19.50;77.50;;;;;;5096455;28;20059;-72
2021/08/30 02:59:36;;;;;;;8.35;6.63;;;19.50;77.50;;;;;;5096573;28;20412;-73
2021/08/30 03:02:03;;;;;;;9.98;6.15;;;19.50;77.50;;;;;;5086203;28;20045;-72
2021/08/30 03:04:32;;;;;;;8.20;6.65;;;19.50;77.50;;;;;;5076559;28;20344;-71
2021/08/30 03:06:59;;;;;;;8.23;6.63;;;19.50;77.50;;;;;;5076224;28;20048;-71
2021/08/30 03:09:25;;;;;;;8.40;6.63;;;19.50;77.50;;;;;;5076002;28;20040;-71
2021/08/30 03:11:53;;;;;;;7.97;6.28;;;19.50;77.50;;;;;;5076811;28;20332;-72
2021/08/30 03:14:23;;;;;;;8.15;5.68;;;19.50;77.50;;;;;;5058680;28;20479;-72
2021/08/30 03:16:56;;;;;;;8.45;6.70;;;19.50;77.50;;;;;;5076222;28;20048;-72
2021/08/30 03:19:24;;;;;;;10.35;6.70;;;19.50;77.60;;;;;;5076091;28;20048;-71
2021/08/30 03:21:50;;;;;;;7.80;6.38;;;19.50;77.60;;;;;;5075741;28;20044;-72
2021/08/30 03:24:19;;;;;;;8.57;6.60;;;19.50;77.50;;;;;;5075942;28;20054;-71
2021/08/30 03:26:47;;;;;;;9.77;6.90;;;19.50;77.50;;;;;;5095456;28;20471;-72
2021/08/30 03:29:15;;;;;;;9.05;6.43;;;19.50;77.50;;;;;;5096037;28;20044;-71
2021/08/30 03:31:41;;;;;;;9.07;6.93;;;19.50;77.50;;;;;;5095945;28;20044;-71
2021/08/30 03:34:08;;;;;;;8.38;5.75;;;19.50;77.50;;;;;;5095701;28;20055;-72
2021/08/30 03:36:34;;;;;;;8.02;6.40;;;19.50;77.50;;;;;;5095885;28;20450;-71
2021/08/30 03:39:00;;;;;;;9.45;6.03;;;19.50;77.60;;;;;;5096066;28;20133;-71
2021/08/30 03:41:27;;;;;;;9.93;7.05;;;19.50;77.60;;;;;;5096465;28;20058;-72
2021/08/30 03:43:55;;;;;;;7.72;6.32;;;19.50;77.50;;;;;;5096213;28;20058;-72
2021/08/30 03:46:21;;;;;;;9.18;6.68;;;19.50;77.50;;;;;;5095420;28;20332;-72
2021/08/30 03:48:48;;;;;;;9.63;6.50;;;19.50;77.60;;;;;;5095890;28;20138;-71
2021/08/30 03:51:14;;;;;;;11.30;6.78;;;19.50;77.60;;;;;;5095646;28;20050;-72
2021/08/30 03:53:41;;;;;;;10.75;5.90;;;19.50;77.60;;;;;;5082602;28;20047;-73
2021/08/30 03:56:08;;;;;;;8.48;6.10;;;19.50;77.60;;;;;;5075139;28;20047;-72
2021/08/30 03:58:36;;;;;;;10.30;6.85;;;19.40;77.50;;;;;;5075365;28;20123;-72
2021/08/30 04:01:05;;;;;;;8.65;6.68;;;19.50;77.60;;;;;;5075058;28;20040;-72
2021/08/30 04:03:35;;;;;;;9.13;6.68;;;19.50;77.60;;;;;;5076338;28;20075;-72
2021/08/30 04:06:03;;;;;;;9.57;6.32;;;19.50;77.60;;;;;;5075006;28;20048;-71
2021/08/30 04:08:30;;;;;;;7.72;5.70;;;19.50;77.50;;;;;;5075062;28;20076;-72
2021/08/30 04:10:57;;;;;;;9.00;6.60;;;19.50;77.50;;;;;;5075076;28;20051;-72
2021/08/30 04:13:23;;;;;;;8.55;6.55;;;19.50;77.60;;;;;;5075054;28;20044;-72
2021/08/30 04:15:49;;;;;;;9.35;6.25;;;19.50;77.50;;;;;;5056771;28;20051;-71
2021/08/30 04:18:14;;;;;;;7.50;6.18;;;19.50;77.50;;;;;;5057893;28;20052;-72
2021/08/30 04:20:40;;;;;;;8.13;5.90;;;19.50;77.50;;;;;;5075342;28;20048;-72
2021/08/30 04:23:06;;;;;;;8.63;5.97;;;19.50;77.50;;;;;;5074931;28;20109;-73
2021/08/30 04:25:32;;;;;;;9.27;6.78;;;19.50;77.50;;;;;;5075374;28;20033;-71
2021/08/30 04:27:57;;;;;;;8.32;5.97;;;19.50;77.50;;;;;;5057343;28;20052;-72
2021/08/30 04:30:23;;;;;;;8.13;6.35;;;19.50;77.50;;;;;;5075217;28;20044;-71
2021/08/30 04:32:53;;;;;;;8.30;5.95;;;19.50;77.60;;;;;;5088088;28;20051;-72
2021/08/30 04:35:19;;;;;;;9.88;6.28;;;19.50;77.60;;;;;;5095085;28;20036;-72
2021/08/30 04:37:44;;;;;;;7.88;5.95;;;19.40;77.50;;;;;;5077475;28;20077;-71
2021/08/30 04:40:10;;;;;;;10.43;6.50;;;19.50;77.60;;;;;;5095488;28;20040;-71
2021/08/30 04:42:36;;;;;;;11.05;7.10;;;19.50;77.60;;;;;;5094162;28;20047;-70
2021/08/30 04:45:03;;;;;;;8.45;5.90;;;19.40;77.60;;;;;;5099050;28;20032;-70
2021/08/30 04:47:28;;;;;;;10.52;6.38;;;19.40;77.60;;;;;;5095615;28;20490;-71
2021/08/30 04:49:54;;;;;;;8.43;6.28;;;19.40;77.70;;;;;;5095179;28;20036;-72
2021/08/30 04:52:20;;;;;;;10.45;6.40;;;19.40;77.80;;;;;;5092697;28;20048;-70
2021/08/30 04:54:46;;;;;;;9.48;6.50;;;19.40;78.00;;;;;;5085684;28;20043;-71
2021/08/30 04:57:11;;;;;;;12.90;7.13;;;19.40;78.10;;;;;;5074636;28;20047;-69
2021/08/30 04:59:37;;;;;;;11.50;6.30;;;19.40;78.20;;;;;;5087882;28;20047;-71
2021/08/30 05:02:03;;;;;;;9.88;6.25;;;19.40;78.30;;;;;;5095123;28;20062;-69
2021/08/30 05:04:29;;;;;;;11.35;7.25;;;19.40;78.50;;;;;;5089532;28;20359;-69
2021/08/30 05:06:55;;;;;;;12.23;7.95;;;19.40;78.40;;;;;;5074008;28;20040;-70
2021/08/30 05:09:20;;;;;;;14.38;8.40;;;19.40;78.40;;;;;;5075773;28;20098;-73
2021/08/30 05:11:46;;;;;;;15.05;8.73;;;19.40;78.60;;;;;;5074305;28;20037;-71
2021/08/30 05:14:12;;;;;;;18.15;9.20;;;19.40;78.80;;;;;;5074647;28;20041;-71
2021/08/30 05:16:37;;;;;;;14.82;8.20;;;19.40;78.80;;;;;;5074633;28;20037;-71
2021/08/30 05:19:03;;;;;;;18.40;8.88;;;19.40;79.00;;;;;;5057112;28;20393;-70
2021/08/30 05:21:29;;;;;;;17.13;9.07;;;19.40;79.10;;;;;;5077914;28;20098;-72
2021/08/30 05:23:55;;;;;;;18.25;8.90;;;19.40;79.30;;;;;;5084019;28;20093;-72
2021/08/30 05:26:20;;;;;;;19.88;9.68;;;19.40;79.50;;;;;;5076506;28;20367;-70
2021/08/30 05:28:49;;;;;;;15.38;9.02;;;19.40;79.60;;;;;;5095262;28;20040;-70
2021/08/30 05:31:15;;;;;;;16.95;8.88;;;19.30;79.80;;;;;;5098328;28;20044;-70
2021/08/30 05:33:41;;;;;;;17.88;8.52;;;19.30;79.90;;;;;;5098126;28;20047;-74
2021/08/30 05:36:07;;;;;;;17.95;10.00;;;19.30;80.00;;;;;;5097890;28;20043;-70
2021/08/30 05:38:33;;;;;;;19.27;11.35;;;19.40;80.20;;;;;;5097821;28;20438;-70
2021/08/30 05:40:59;;;;;;;34.53;30.15;;;19.40;80.20;;;;;;5080571;28;20329;-70
2021/08/30 05:43:25;;;;;;;35.42;28.40;;;19.50;80.20;;;;;;5077708;28;20097;-70
2021/08/30 05:45:51;;;;;;;25.88;21.70;;;19.50;80.20;;;;;;5077736;28;20321;-71
2021/08/30 05:48:16;;;;;;;26.02;19.70;;;19.50;80.20;;;;;;5077745;28;20052;-71
2021/08/30 05:50:42;;;;;;;19.98;14.02;;;19.50;80.30;;;;;;5077944;28;20047;-70
2021/08/30 05:53:08;;;;;;;22.90;13.27;;;19.40;80.40;;;;;;5077740;28;20119;-70
2021/08/30 05:55:33;;;;;;;20.33;12.57;;;19.40;80.60;;;;;;5078139;28;20036;-70
2021/08/30 05:57:59;;;;;;;16.85;11.80;;;19.40;80.70;;;;;;5077813;28;20462;-70
2021/08/30 06:00:25;;;;;;;16.20;11.43;;;19.30;80.80;;;;;;5077406;28;20048;-70
2021/08/30 06:02:51;;;;;;;19.52;12.48;;;19.30;80.70;;;;;;5077204;28;20059;-69
2021/08/30 06:05:16;;;;;;;17.27;10.55;;;19.40;80.80;;;;;;5077170;28;20040;-69
2021/08/30 06:07:42;;;;;;;16.75;10.55;;;19.30;80.90;;;;;;5077350;28;20036;-70
2021/08/30 06:10:09;;;;;;;22.65;11.95;;;19.40;81.10;;;;;;5077296;28;20123;-76
2021/08/30 06:12:36;;;;;;;31.58;11.95;;;19.40;81.20;;;;;;5077134;28;20044;-74
2021/08/30 06:15:03;;;;;;;21.27;11.30;;;19.40;81.30;;;;;;5077240;28;20033;-74
2021/08/30 06:17:30;;;;;;;19.65;10.40;;;19.40;81.10;;;;;;5084626;28;20068;-70
2021/08/30 06:19:55;;;;;;;19.50;10.20;;;19.40;81.10;;;;;;5085461;28;20044;-70
2021/08/30 06:22:21;;;;;;;23.17;10.18;;;19.40;81.10;;;;;;5069773;28;20440;-69
2021/08/30 06:24:48;;;;;;;18.48;9.95;;;19.40;81.00;;;;;;5076582;28;20045;-70
2021/08/30 06:27:17;;;;;;;17.15;10.02;;;19.40;81.00;;;;;;5094484;28;20059;-75
2021/08/30 06:29:44;;;;;;;17.35;10.38;;;19.40;81.10;;;;;;5097328;28;20570;-78
2021/08/30 06:32:10;;;;;;;17.90;10.48;;;19.40;81.10;;;;;;5079159;28;20073;-79
2021/08/30 06:34:36;;;;;;;18.42;9.85;;;19.40;81.00;;;;;;5062070;28;20043;-75
2021/08/30 06:37:03;;;;;;;18.88;10.32;;;19.50;80.90;;;;;;5096223;28;20447;-76
2021/08/30 06:39:28;;;;;;;19.33;9.57;;;19.50;81.00;;;;;;5097138;28;20300;-76
2021/08/30 06:41:54;;;;;;;14.95;9.15;;;19.60;81.40;;;;;;5097222;28;20127;-78
2021/08/30 06:44:20;;;;;;;19.00;8.40;;;19.60;81.40;;;;;;5096974;28;20382;-75
2021/08/30 06:46:45;;;;;;;23.27;8.98;;;19.60;81.30;;;;;;5079134;28;20040;-76
2021/08/30 06:49:12;;;;;;;19.58;9.00;;;19.60;81.30;;;;;;5086335;28;20040;-76
2021/08/30 06:51:38;;;;;;;20.13;8.90;;;19.60;81.30;;;;;;5058268;28;20368;-77
2021/08/30 06:54:03;;;;;;;19.75;9.32;;;19.60;81.80;;;;;;5062770;28;20040;-79
2021/08/30 06:56:29;;;;;;;14.13;7.93;;;19.60;81.20;;;;;;5043013;28;20041;-71
2021/08/30 06:58:55;;;;;;;17.30;8.25;;;19.70;81.20;;;;;;5078871;28;20115;-73
2021/08/30 07:01:20;;;;;;;16.20;8.35;;;19.60;81.20;;;;;;5075604;28;20044;-72
2021/08/30 07:03:48;;;;;;;14.40;7.40;;;19.60;81.20;;;;;;5076931;28;20075;-72
2021/08/30 07:06:13;;;;;;;19.80;7.65;;;19.60;81.30;;;;;;5076490;28;20040;-73
2021/08/30 07:08:39;;;;;;;15.98;7.47;;;19.60;81.20;;;;;;5064762;28;20054;-72
2021/08/30 07:11:05;;;;;;;14.85;7.95;;;19.60;81.20;;;;;;5082343;28;20095;-73
2021/08/30 07:13:32;;;;;;;17.13;7.30;;;19.60;81.20;;;;;;5076333;28;20056;-72
2021/08/30 07:15:58;;;;;;;12.18;7.35;;;19.60;81.30;;;;;;5096337;28;20113;-72
2021/08/30 07:18:24;;;;;;;12.18;7.63;;;19.60;81.40;;;;;;5096040;28;20079;-72
2021/08/30 07:20:50;;;;;;;13.60;7.00;;;19.60;81.40;;;;;;5089809;28;20079;-73
2021/08/30 07:23:16;;;;;;;11.43;7.18;;;19.60;81.40;;;;;;5090361;28;20048;-72
2021/08/30 07:25:43;;;;;;;11.23;7.28;;;19.70;81.40;;;;;;5087045;28;20363;-72
2021/08/30 07:28:09;;;;;;;15.05;7.25;;;19.60;81.90;;;;;;5095904;28;20079;-71
2021/08/30 07:30:34;;;;;;;13.50;7.40;;;19.60;81.30;;;;;;5088599;28;20084;-72
2021/08/30 07:33:00;;;;;;;13.00;7.03;;;19.70;81.40;;;;;;5095847;28;20113;-72
2021/08/30 07:35:27;;;;;;;12.48;7.18;;;19.70;81.40;;;;;;5088449;28;20340;-72
2021/08/30 07:37:53;;;;;;;13.93;7.30;;;19.70;81.40;;;;;;5078758;28;20052;-73
2021/08/30 07:40:19;;;;;;;15.05;7.85;;;19.70;81.40;;;;;;5079787;28;20059;-72
2021/08/30 07:42:45;;;;;;;16.48;7.70;;;19.70;81.50;;;;;;5075295;28;20432;-71
2021/08/30 07:45:11;;;;;;;15.57;7.63;;;19.70;82.00;;;;;;5057863;28;20055;-72
2021/08/30 07:47:37;;;;;;;17.13;7.88;;;19.70;81.30;;;;;;5075060;28;20037;-71
2021/08/30 07:50:05;;;;;;;15.10;7.78;;;19.70;81.30;;;;;;5086170;28;20051;-70
2021/08/30 07:52:31;;;;;;;21.02;9.35;;;19.70;81.40;;;;;;5095985;28;20039;-69
2021/08/30 07:54:57;;;;;;;17.63;9.38;;;19.70;81.30;;;;;;5095807;28;20098;-70
2021/08/30 07:57:23;;;;;;;17.83;9.65;;;19.80;81.30;;;;;;5095673;28;20075;-69
2021/08/30 07:59:49;;;;;;;15.23;9.05;;;19.70;81.20;;;;;;5094419;28;20380;-71
2021/08/30 08:02:16;;;;;;;18.05;9.13;;;19.80;81.10;;;;;;5094337;28;20060;-68
2021/08/30 08:04:42;;;;;;;20.13;8.38;;;19.80;81.10;;;;;;5091612;28;20051;-69
2021/08/30 08:07:08;;;;;;;16.40;8.27;;;19.80;81.10;;;;;;5095170;28;20044;-68
2021/08/30 08:09:34;;;;;;;13.40;8.00;;;19.80;81.10;;;;;;5075736;28;20377;-69
2021/08/30 08:12:00;;;;;;;15.18;7.75;;;19.80;81.00;;;;;;5095335;28;20051;-69
2021/08/30 08:14:25;;;;;;;14.23;8.18;;;19.80;81.00;;;;;;5077508;28;20418;-69
2021/08/30 08:16:51;;;;;;;12.57;7.05;;;19.80;81.10;;;;;;5095198;28;20462;-68
2021/08/30 08:19:17;;;;;;;13.00;8.73;;;19.80;81.00;;;;;;5078216;28;20040;-68
2021/08/30 08:21:43;;;;;;;15.73;7.47;;;19.80;81.00;;;;;;5095115;28;20071;-69
2021/08/30 08:24:10;;;;;;;15.07;7.25;;;19.80;81.00;;;;;;5095044;28;20072;-69
2021/08/30 08:26:36;;;;;;;11.13;6.85;;;19.80;80.90;;;;;;5095126;28;20044;-74
2021/08/30 08:29:02;;;;;;;16.63;7.70;;;19.70;80.60;;;;;;5094089;28;20050;-74
2021/08/30 08:31:28;;;;;;;11.93;6.97;;;19.70;80.60;;;;;;5095440;28;20359;-74
2021/08/30 08:33:54;;;;;;;14.43;7.53;;;19.70;80.50;;;;;;5094998;28;20135;-73
2021/08/30 08:36:21;;;;;;;14.35;7.03;;;19.70;80.60;;;;;;5083956;28;20119;-74
2021/08/30 08:38:47;;;;;;;16.27;7.18;;;19.60;80.70;;;;;;5086013;28;20097;-74
2021/08/30 08:41:13;;;;;;;14.55;6.90;;;19.60;80.70;;;;;;5076311;28;20109;-74
2021/08/30 08:43:41;;;;;;;14.93;7.13;;;19.60;80.70;;;;;;5080393;28;20036;-73
2021/08/30 08:46:07;;;;;;;12.93;6.75;;;19.60;80.80;;;;;;5095245;28;20048;-73
2021/08/30 08:48:34;;;;;;;11.52;6.32;;;19.60;80.80;;;;;;5094416;28;20055;-73
2021/08/30 08:51:00;;;;;;;13.32;7.05;;;19.60;80.80;;;;;;5093879;28;20040;-75
2021/08/30 08:53:26;;;;;;;11.85;6.72;;;19.60;81.00;;;;;;5093729;28;20182;-74
2021/08/30 08:55:52;;;;;;;10.63;6.00;;;19.60;81.30;;;;;;5088549;28;20043;-75
2021/08/30 08:58:22;;;;;;;12.65;6.03;;;19.50;81.10;;;;;;5075022;28;20052;-75
2021/08/30 09:01:12;;;;;;;11.77;6.57;;;19.60;81.20;;;;;;5076191;28;20048;-72
2021/08/30 09:03:53;;;;;;;14.55;6.07;;;19.60;81.10;;;;;;5078632;28;20055;-69
2021/08/30 09:06:43;;;;;;;13.50;6.38;;;19.60;81.70;;;;;;5078731;28;20386;-69
2021/08/30 09:09:13;;;;;;;12.02;6.63;;;19.60;81.00;;;;;;5078433;28;20055;-68
2021/08/30 09:11:43;;;;;;;11.57;6.47;;;19.60;81.00;;;;;;5079795;28;20058;-76
2021/08/30 09:14:20;;;;;;;11.52;6.20;;;19.70;81.10;;;;;;5078049;28;20051;-70
2021/08/30 09:16:47;;;;;;;10.40;6.07;;;19.70;81.10;;;;;;5079218;28;20490;-69
2021/08/30 09:19:17;;;;;;;13.90;6.95;;;19.70;81.20;;;;;;5078407;28;20059;-68
2021/08/30 09:21:48;;;;;;;12.20;6.30;;;19.80;81.20;;;;;;5077886;28;20098;-73
2021/08/30 09:24:23;;;;;;;12.77;6.00;;;19.80;81.10;;;;;;5079057;28;20102;-72
2021/08/30 09:27:06;;;;;;;14.32;5.90;;;19.80;80.50;;;;;;5092649;28;20093;-73
2021/08/30 09:29:34;;;;;;;11.27;6.30;;;19.80;80.70;;;;;;5078259;28;20122;-74
2021/08/30 09:32:04;;;;;;;9.15;6.03;;;19.80;80.70;;;;;;5077497;28;20377;-72
2021/08/30 09:34:42;;;;;;;9.52;5.50;;;19.80;80.70;;;;;;5077918;28;20036;-73
2021/08/30 09:37:25;;;;;;;8.85;5.30;;;19.80;80.50;;;;;;5077865;28;20048;-74
2021/08/30 09:39:54;;;;;;;8.43;6.07;;;19.90;80.40;;;;;;5060396;28;20045;-71
2021/08/30 09:42:19;;;;;;;11.07;5.75;;;19.90;80.50;;;;;;5060478;28;20396;-74
2021/08/30 09:44:45;;;;;;;7.53;5.53;;;19.90;80.60;;;;;;5077255;28;20075;-74
2021/08/30 09:47:17;;;;;;;13.85;5.97;;;19.90;80.40;;;;;;5060051;28;20170;-74
2021/08/30 09:49:52;;;;;;;7.63;5.55;;;19.90;80.40;;;;;;5086786;28;20048;-75
2021/08/30 09:52:20;;;;;;;8.07;5.70;;;20.00;80.30;;;;;;5079073;28;20473;-74
2021/08/30 09:54:46;;;;;;;11.38;5.60;;;20.00;80.20;;;;;;5082406;28;20040;-74
2021/08/30 09:57:14;;;;;;;8.85;5.60;;;20.00;80.20;;;;;;5097536;28;20051;-74
2021/08/30 09:59:43;;;;;;;8.05;5.32;;;20.00;80.20;;;;;;5098022;28;20040;-74
2021/08/30 10:02:11;;;;;;;7.53;5.22;;;19.90;80.00;;;;;;5096511;28;20478;-74
2021/08/30 10:04:40;;;;;;;7.65;5.65;;;20.00;80.10;;;;;;5080401;28;20040;-75
2021/08/30 10:07:07;;;;;;;6.93;5.50;;;20.00;80.00;;;;;;5097326;28;20051;-74
2021/08/30 10:09:34;;;;;;;10.18;6.07;;;20.00;80.00;;;;;;5096576;28;20343;-74
2021/08/30 10:12:00;;;;;;;10.38;5.95;;;20.00;80.00;;;;;;5077005;28;20044;-74
2021/08/30 10:14:28;;;;;;;15.27;5.88;;;20.00;80.00;;;;;;5077214;28;20138;-70
2021/08/30 10:16:56;;;;;;;13.85;5.85;;;20.00;79.80;;;;;;5077156;28;20506;-70
2021/08/30 10:19:31;;;;;;;16.20;6.28;;;20.00;80.10;;;;;;5077290;28;20051;-71
2021/08/30 10:21:59;;;;;;;8.00;5.50;;;20.00;80.00;;;;;;5085483;28;20359;-73
2021/08/30 10:24:25;;;;;;;9.48;5.05;;;20.10;80.10;;;;;;5096154;28;20043;-74
2021/08/30 10:27:00;;;;;;;6.88;5.15;;;20.00;80.10;;;;;;5104998;28;20443;-70
2021/08/30 10:29:34;;;;;;;14.23;6.22;;;20.10;79.80;;;;;;5117729;28;20036;-70
2021/08/30 10:32:01;;;;;;;8.23;5.03;;;20.10;79.90;;;;;;5117772;28;20051;-69
2021/08/30 10:34:31;;;;;;;9.35;5.78;;;20.10;79.90;;;;;;5117176;28;20035;-70
2021/08/30 10:36:58;;;;;;;8.90;5.82;;;20.10;79.90;;;;;;5107574;28;20032;-70
2021/08/30 10:39:36;;;;;;;9.30;4.70;;;20.10;79.90;;;;;;5076596;28;20041;-70
2021/08/30 10:42:03;;;;;;;7.15;5.35;;;20.10;79.80;;;;;;5076820;28;20049;-70
2021/08/30 10:44:34;;;;;;;9.30;5.20;;;20.10;79.90;;;;;;5076963;28;20140;-71
2021/08/30 10:47:01;;;;;;;10.40;5.75;;;20.10;79.90;;;;;;5076164;28;20080;-69
2021/08/30 10:49:32;;;;;;;8.07;5.20;;;20.10;79.90;;;;;;5076846;28;20329;-70
2021/08/30 10:52:07;;;;;;;6.28;4.70;;;20.10;79.90;;;;;;5059104;28;20076;-70
2021/08/30 10:54:33;;;;;;;5.50;4.50;;;20.10;79.80;;;;;;5079549;28;20415;-73
2021/08/30 10:57:02;;;;;;;8.50;5.47;;;20.10;79.80;;;;;;5082951;28;20357;-72
2021/08/30 10:59:30;;;;;;;6.95;4.93;;;20.10;79.80;;;;;;5098072;28;20075;-71
2021/08/30 11:01:59;;;;;;;8.70;5.10;;;20.10;79.70;;;;;;5095190;28;20048;-69
2021/08/30 11:04:36;;;;;;;7.38;5.35;;;20.10;79.70;;;;;;5096619;28;20051;-70
2021/08/30 11:07:07;;;;;;;9.80;5.10;;;20.10;79.70;;;;;;5096665;28;20046;-71
2021/08/30 11:09:42;;;;;;;9.43;5.57;;;20.10;79.70;;;;;;5076272;28;20041;-70
2021/08/30 11:12:13;;;;;;;9.18;5.05;;;20.10;79.70;;;;;;5092192;28;20378;-74
2021/08/30 11:14:40;;;;;;;6.32;4.70;;;20.10;79.70;;;;;;5073694;28;20036;-76
2021/08/30 11:17:10;;;;;;;6.18;4.05;;;20.10;79.70;;;;;;5078036;28;20431;-79
2021/08/30 11:19:35;;;;;;;8.38;4.88;;;20.10;79.70;;;;;;5080952;28;20043;-79
2021/08/30 11:22:07;;;;;;;10.45;5.30;;;20.10;79.80;;;;;;5096064;28;20036;-80
2021/08/30 11:24:37;;;;;;;7.55;4.50;;;20.20;79.90;;;;;;5077948;28;20040;-80
2021/08/30 11:27:08;;;;;;;7.18;4.18;;;20.20;79.80;;;;;;5078423;28;20375;-78
2021/08/30 11:29:39;;;;;;;8.45;4.75;;;20.20;79.60;;;;;;5096214;28;20047;-77
2021/08/30 11:32:05;;;;;;;7.97;4.53;;;20.20;80.00;;;;;;5074837;28;20470;-75
2021/08/30 11:34:33;;;;;;;8.88;4.63;;;20.20;79.60;;;;;;5058153;28;20040;-74
2021/08/30 11:37:01;;;;;;;7.88;4.97;;;20.20;79.80;;;;;;5059063;28;20052;-77
2021/08/30 11:39:33;;;;;;;6.05;4.10;;;20.30;79.90;;;;;;5072897;28;20336;-80
2021/08/30 11:42:05;;;;;;;7.78;4.10;;;20.30;80.00;;;;;;5075738;28;20123;-75
2021/08/30 11:44:32;;;;;;;9.23;4.75;;;20.30;79.90;;;;;;5058373;28;20052;-79
2021/08/30 11:47:02;;;;;;;7.22;4.35;;;20.30;79.90;;;;;;5090591;28;20078;-75
2021/08/30 11:49:30;;;;;;;7.45;4.13;;;20.30;79.90;;;;;;5077252;28;20047;-78
2021/08/30 11:52:01;;;;;;;7.80;4.28;;;20.30;80.00;;;;;;5095569;28;20100;-79
2021/08/30 11:54:31;;;;;;;7.55;4.53;;;20.30;79.50;;;;;;5077390;28;20047;-79
2021/08/30 11:57:06;;;;;;;7.90;4.53;;;20.30;79.70;;;;;;5095040;28;20048;-71
2021/08/30 11:59:38;;;;;;;10.35;4.63;;;20.30;79.60;;;;;;5095767;28;20047;-73
2021/08/30 12:02:06;;;;;;;7.97;4.65;;;20.30;79.70;;;;;;5086503;28;20052;-71
2021/08/30 12:04:34;;;;;;;10.32;4.50;;;20.30;79.70;;;;;;5080691;28;20171;-71
2021/08/30 12:07:03;;;;;;;7.82;3.92;;;20.30;79.70;;;;;;5081177;28;20046;-71
2021/08/30 12:09:43;;;;;;;7.45;4.50;;;20.30;79.70;;;;;;5078706;28;20123;-73
2021/08/30 12:12:23;;;;;;;8.48;4.22;;;20.30;79.60;;;;;;5081348;28;20048;-72
2021/08/30 12:15:13;;;;;;;5.47;4.10;;;20.30;79.70;;;;;;5064125;28;20517;-71
2021/08/30 12:17:45;;;;;;;8.73;4.28;;;20.30;79.50;;;;;;5067289;28;20039;-72
2021/08/30 12:20:12;;;;;;;6.68;4.40;;;20.30;79.60;;;;;;5081401;28;20036;-71
2021/08/30 12:22:49;;;;;;;7.70;4.32;;;20.40;79.80;;;;;;5081748;28;20076;-72
2021/08/30 12:25:24;;;;;;;7.15;3.72;;;20.30;79.70;;;;;;5085900;28;20431;-72
2021/08/30 12:27:51;;;;;;;8.60;4.38;;;20.40;79.70;;;;;;5081182;28;20174;-71
2021/08/30 12:30:23;;;;;;;5.95;3.60;;;20.30;79.80;;;;;;5082403;28;20040;-72
2021/08/30 12:33:08;;;;;;;7.13;3.83;;;20.30;79.80;;;;;;5060587;28;20040;-72
2021/08/30 12:35:42;;;;;;;5.85;4.05;;;20.40;79.80;;;;;;5083314;28;20040;-71
2021/08/30 12:38:14;;;;;;;9.07;4.53;;;20.30;80.40;;;;;;5079375;28;20040;-71
2021/08/30 12:40:51;;;;;;;5.35;3.90;;;20.30;79.90;;;;;;5061383;28;20048;-72
2021/08/30 12:43:17;;;;;;;5.43;3.75;;;20.30;79.90;;;;;;5079213;28;20040;-71
2021/08/30 12:45:45;;;;;;;5.78;3.58;;;20.30;80.00;;;;;;5093413;28;20043;-79
2021/08/30 12:48:12;;;;;;;9.60;3.97;;;20.30;79.80;;;;;;5077911;28;20037;-69